Hlavní strana
METAR-TAF:

METAR-TAF

Letiště :

Molde, Norsko

zeměpisná šířka: 62-45N, zeměpisná délka: 007-16E, výška: 0 m

Aktuální stav počasí

Zpráva byla vytvořena před 26 minutami, v 12:20 UTC
Západojihozápadní vítr 18 kt
Teplota 7°C
Vlhkost vzduchu 93%
Tlak 1024 hPa
Viditelnost: 8000 m
Skoro jasno ve výšce 1500 ft
Oblačno až skoro zataženo ve výšce 2500 ft
déšť

METAR: ENML 011220Z 24018KT 8000 RA FEW015 BKN025 07/06 Q1024

Čas: 13:46 (12:46 UTC)

Předpověď počasí

Zpráva byla vytvořena před 1 hodinou a 46 minutami, v 11:00 UTC
Předpověď platná od 01 v 12 UTC do 01 v 21 UTC
Západní vítr 18 kt
Viditelnost 10 km a více
Polojasno ve výšce 1000 ft
Oblačno až skoro zataženo ve výšce 2000 ft
slabý déšť
Dočasný
od 01 v 12 UTC do 01 v 21 UTC
Západní vítr 25 kt s nárazy do 35 kt
Viditelnost: 3000 m
Oblačno až skoro zataženo ve výšce 800 ft
déšť, mrholení, kouřmo

TAF: ENML 011100Z 0112/0121 26018KT 9999 -RA SCT010 BKN020 TEMPO 0112/0121 26025G35KT 3000 RADZ BR BKN008

Stav a předpovědi počasí z více než 4 000 letišť (zprávy METAR a TAF).

Červené a žluté tečky na mapě představují dostupné meteorologické stanice.

Když kurzor umístíte na tečku, zobrazí se název stanice.

Pak kliknutím zobrazíte stav a předpověď počasí.

Chcete-li změnit mapu, kliknutím na zelené tlačítko se znaménkem +mapu přiblížíte, kliknutím na zelené tlačítko se znaménkem – mapu oddálíte a kliknutím na zelené šipky přejdete na sousední mapy.


METAR-TAF: